Time;durP1;ratioP1;P1;durP2;ratioP2;P2;SDS_P1;SDS_P2;PMS_P1;PMS_P2;Temp;Humidity;BMP_temperature;BMP_pressure;BME280_temperature;BME280_humidity;BME280_pressure;Samples;Min_cycle;Max_cycle;Signal;HPM_P1;HPM_P2
2021/06/19 00:00:02;;;;;;;;;7.00;6.00;;;;;21.52;64.52;101141.59;4965490;28;45484;-76
2021/06/19 00:02:27;;;;;;;;;7.00;7.00;;;;;21.46;64.75;101143.25;4963029;28;45613;-76
2021/06/19 00:04:52;;;;;;;;;5.00;5.00;;;;;21.41;65.21;101140.38;4961430;28;45478;-74
2021/06/19 00:07:18;;;;;;;;;5.75;5.00;;;;;21.41;65.19;101154.66;4964448;28;46136;-75
2021/06/19 00:09:43;;;;;;;;;6.25;6.00;;;;;21.38;65.08;101143.47;4965990;28;46099;-75
2021/06/19 00:12:09;;;;;;;;;5.75;5.75;;;;;21.40;65.01;101146.81;4967490;28;46322;-75
2021/06/19 00:14:35;;;;;;;;;6.50;5.50;;;;;21.34;65.34;101145.75;4966484;28;54915;-75
2021/06/19 00:17:01;;;;;;;;;7.50;6.25;;;;;21.35;65.19;101143.88;4964369;28;45702;-75
2021/06/19 00:19:26;;;;;;;;;7.00;7.00;;;;;21.35;65.45;101157.34;4964999;28;45639;-76
2021/06/19 00:21:51;;;;;;;;;7.00;6.00;;;;;21.27;65.28;101143.06;4968285;28;45595;-76
2021/06/19 00:24:22;;;;;;;;;5.00;4.50;;;;;21.25;65.89;101145.16;4969165;28;45419;-74
2021/06/19 00:26:49;;;;;;;;;5.50;5.50;;;;;21.24;65.55;101139.97;4970614;28;46295;-76
2021/06/19 00:29:16;;;;;;;;;6.75;6.00;;;;;21.24;65.78;101140.81;4964306;28;45505;-76
2021/06/19 00:31:43;;;;;;;;;5.00;5.00;;;;;21.24;65.96;101140.81;4967499;28;45852;-75
2021/06/19 00:34:09;;;;;;;;;6.25;6.25;;;;;21.24;65.87;101156.94;4965887;28;45570;-76
2021/06/19 00:36:35;;;;;;;;;6.25;6.25;;;;;21.18;65.99;101152.38;4965924;28;46483;-76
2021/06/19 00:39:01;;;;;;;;;5.25;5.25;;;;;21.20;65.58;101160.25;4968853;28;45522;-76
2021/06/19 00:41:26;;;;;;;;;6.00;6.00;;;;;21.11;65.91;101148.06;4963887;28;45618;-76
2021/06/19 00:43:52;;;;;;;;;7.50;7.50;;;;;21.10;66.01;101149.94;4964483;28;45523;-76
2021/06/19 00:46:17;;;;;;;;;6.00;6.00;;;;;21.05;65.70;101141.66;4981231;28;47849;-76
2021/06/19 00:48:43;;;;;;;;;6.25;6.00;;;;;21.04;66.19;101140.00;4967639;28;45385;-76
2021/06/19 00:51:08;;;;;;;;;5.50;5.00;;;;;21.03;66.56;101147.25;4970502;28;45576;-75
2021/06/19 00:53:34;;;;;;;;;6.00;6.00;;;;;20.99;66.27;101145.16;4964021;28;46430;-77
2021/06/19 00:56:01;;;;;;;;;6.00;6.00;;;;;21.01;66.26;101145.78;4962608;28;45683;-77
2021/06/19 00:58:26;;;;;;;;;6.50;6.50;;;;;20.97;66.75;101145.41;4963948;28;45488;-74
2021/06/19 01:00:51;;;;;;;;;7.50;5.50;;;;;20.91;66.44;101151.59;4965149;28;45416;-74
2021/06/19 01:03:16;;;;;;;;;8.00;6.50;;;;;20.88;66.62;101157.38;4967450;28;45562;-78
2021/06/19 01:05:43;;;;;;;;;5.75;5.75;;;;;20.93;67.08;101164.81;4969957;28;46191;-73
2021/06/19 01:08:09;;;;;;;;;7.00;7.00;;;;;20.92;66.81;101168.53;4966932;28;45804;-77
2021/06/19 01:10:34;;;;;;;;;7.50;6.00;;;;;20.87;66.73;101169.19;4967448;28;45592;-75
2021/06/19 01:13:00;;;;;;;;;6.00;6.00;;;;;20.81;66.63;101168.13;4965665;28;45463;-75
2021/06/19 01:15:27;;;;;;;;;8.25;6.00;;;;;20.83;66.88;101163.38;4967083;28;45625;-75
2021/06/19 01:17:53;;;;;;;;;9.00;8.25;;;;;20.80;67.22;101150.38;4962811;28;45433;-75
2021/06/19 01:20:20;;;;;;;;;6.00;6.00;;;;;20.79;67.23;101146.00;4963031;28;45572;-73
2021/06/19 01:22:49;;;;;;;;;7.50;6.50;;;;;20.75;67.64;101136.72;4964321;28;45917;-75
2021/06/19 01:25:26;;;;;;;;;6.75;6.75;;;;;20.72;68.18;101134.47;4964649;28;45901;-74
2021/06/19 01:27:53;;;;;;;;;7.00;7.00;;;;;20.69;67.95;101137.53;4970318;28;45581;-76
2021/06/19 01:30:20;;;;;;;;;7.00;7.00;;;;;20.66;67.48;101143.34;4967132;28;45567;-75
2021/06/19 01:32:47;;;;;;;;;8.25;8.00;;;;;20.65;67.46;101151.56;4968677;28;45878;-75
2021/06/19 01:35:13;;;;;;;;;7.25;7.00;;;;;20.57;67.84;101156.16;4965112;28;45504;-74
2021/06/19 01:37:50;;;;;;;;;8.00;7.25;;;;;20.54;67.82;101161.88;4963598;28;45673;-75
2021/06/19 01:40:18;;;;;;;;;7.50;7.50;;;;;20.54;67.57;101166.41;4963246;28;45476;-82
2021/06/19 01:42:47;;;;;;;;;9.50;8.00;;;;;20.51;68.12;101158.78;4964646;28;45492;-75
2021/06/19 01:45:19;;;;;;;;;8.00;7.25;;;;;20.50;68.46;101168.69;4966047;28;45973;-73
2021/06/19 01:47:46;;;;;;;;;8.75;7.75;;;;;20.48;68.18;101172.63;4968609;28;45539;-75
2021/06/19 01:50:15;;;;;;;;;9.25;7.25;;;;;20.49;68.38;101166.22;4965570;28;45558;-76
2021/06/19 01:52:41;;;;;;;;;7.25;7.25;;;;;20.49;68.73;101166.22;4963635;28;45495;-74
2021/06/19 01:55:08;;;;;;;;;11.00;9.75;;;;;20.48;68.93;101167.25;4964214;28;52154;-74
2021/06/19 01:57:37;;;;;;;;;6.50;6.50;;;;;20.48;69.07;101172.63;4966709;28;45737;-73
2021/06/19 02:00:15;;;;;;;;;7.25;7.00;;;;;20.50;68.66;101173.22;4967120;28;45701;-74
2021/06/19 02:02:41;;;;;;;;;7.00;7.00;;;;;20.49;68.73;101169.72;4966077;28;46057;-74
2021/06/19 02:05:08;;;;;;;;;7.00;6.75;;;;;20.46;68.74;101170.13;4960426;28;46609;-74
2021/06/19 02:07:43;;;;;;;;;10.75;7.25;;;;;20.45;68.69;101162.28;4966033;28;51351;-74
2021/06/19 02:10:10;;;;;;;;;8.50;8.50;;;;;20.43;69.23;101159.00;4964348;28;50070;-73
2021/06/19 02:12:36;;;;;;;;;6.25;6.25;;;;;20.43;69.38;101161.66;4964761;28;45626;-74
2021/06/19 02:15:01;;;;;;;;;8.00;8.00;;;;;20.40;69.13;101166.41;4967249;28;45779;-74
2021/06/19 02:17:27;;;;;;;;;12.50;11.00;;;;;20.38;68.73;101163.09;4965852;28;49532;-74
2021/06/19 02:19:52;;;;;;;;;8.50;8.00;;;;;20.41;69.17;101167.22;4964968;28;45438;-74
2021/06/19 02:22:17;;;;;;;;;8.25;7.75;;;;;20.40;69.49;101155.69;4979654;28;45713;-74
2021/06/19 02:24:43;;;;;;;;;11.25;8.00;;;;;20.40;69.25;101155.69;4962301;28;46399;-73
2021/06/19 02:27:10;;;;;;;;;9.50;9.50;;;;;20.43;69.43;101156.31;4969707;28;45574;-74
2021/06/19 02:29:35;;;;;;;;;8.50;7.75;;;;;20.44;69.51;101155.25;4962245;28;45872;-73
2021/06/19 02:32:01;;;;;;;;;8.00;7.75;;;;;20.42;69.33;101155.44;4963499;28;45643;-74
2021/06/19 02:34:26;;;;;;;;;11.25;11.25;;;;;20.40;69.18;101158.34;4963671;28;48346;-74
2021/06/19 02:36:52;;;;;;;;;9.75;9.00;;;;;20.38;68.92;101154.22;4965244;28;45476;-74
2021/06/19 02:39:19;;;;;;;;;9.50;8.75;;;;;20.36;69.34;101161.66;4966077;28;45474;-74
2021/06/19 02:41:44;;;;;;;;;9.25;9.25;;;;;20.34;69.44;101163.72;4963879;28;45473;-73
2021/06/19 02:44:09;;;;;;;;;10.00;10.00;;;;;20.33;69.60;101173.63;4963027;28;46159;-73
2021/06/19 02:46:35;;;;;;;;;9.25;9.25;;;;;20.33;69.39;101181.69;4963440;28;45411;-74
2021/06/19 02:49:00;;;;;;;;;11.25;9.25;;;;;20.35;69.46;101185.00;4964538;28;45571;-73
2021/06/19 02:51:26;;;;;;;;;9.50;9.50;;;;;20.35;69.45;101185.00;4965256;28;45912;-74
2021/06/19 02:53:51;;;;;;;;;9.75;8.75;;;;;20.34;69.60;101177.94;4966195;28;47580;-74
2021/06/19 02:56:17;;;;;;;;;11.25;10.25;;;;;20.33;69.87;101183.53;4961982;28;45509;-74
2021/06/19 02:58:42;;;;;;;;;10.00;8.50;;;;;20.35;69.37;101173.41;4961514;28;45617;-76
2021/06/19 03:01:11;;;;;;;;;9.75;9.00;;;;;20.35;69.93;101171.56;4962659;28;45599;-73
2021/06/19 03:03:36;;;;;;;;;10.50;10.25;;;;;20.34;69.60;101171.75;4965310;28;46525;-74
2021/06/19 03:06:02;;;;;;;;;9.00;9.00;;;;;20.34;69.59;101175.25;4967905;28;45472;-74
2021/06/19 03:08:28;;;;;;;;;12.25;9.25;;;;;20.34;69.92;101177.94;4962347;28;45604;-74
2021/06/19 03:10:54;;;;;;;;;9.00;9.00;;;;;20.31;69.86;101178.34;4963009;28;45632;-75
2021/06/19 03:13:20;;;;;;;;;10.25;9.25;;;;;20.33;70.17;101178.16;4960389;28;45492;-75
2021/06/19 03:15:46;;;;;;;;;10.00;10.00;;;;;20.33;70.28;101180.84;4965948;28;56145;-73
2021/06/19 03:18:11;;;;;;;;;11.75;10.50;;;;;20.31;70.10;101185.59;4967144;28;45584;-73
2021/06/19 03:20:37;;;;;;;;;10.50;10.25;;;;;20.31;70.23;101178.34;4961404;28;45542;-74
2021/06/19 03:23:05;;;;;;;;;10.50;9.50;;;;;20.28;70.30;101168.03;4963556;28;46168;-74
2021/06/19 03:25:34;;;;;;;;;14.00;11.50;;;;;20.28;69.71;101169.91;4960299;28;45727;-73
2021/06/19 03:28:03;;;;;;;;;9.75;7.75;;;;;20.24;70.08;101182.88;4982421;28;45707;-73
2021/06/19 03:30:30;;;;;;;;;10.25;9.00;;;;;20.20;70.21;101178.94;4960457;28;45824;-74
2021/06/19 03:32:55;;;;;;;;;11.00;11.00;;;;;20.19;70.22;101177.28;4967332;28;45903;-74
2021/06/19 03:35:21;;;;;;;;;10.25;9.50;;;;;20.16;70.54;101173.16;4963377;28;45513;-74
2021/06/19 03:37:48;;;;;;;;;10.25;10.25;;;;;20.17;70.36;101179.34;4962837;28;45372;-74
2021/06/19 03:40:15;;;;;;;;;11.00;10.00;;;;;20.13;70.96;101181.63;4962092;28;45602;-73
2021/06/19 03:42:44;;;;;;;;;10.75;10.25;;;;;20.12;70.33;101189.84;4964597;28;45524;-75
2021/06/19 03:45:11;;;;;;;;;10.00;10.00;;;;;20.09;70.51;101182.22;4970085;28;45569;-73
2021/06/19 03:47:41;;;;;;;;;10.25;10.25;;;;;20.03;70.83;101178.50;4963192;28;45583;-74
2021/06/19 03:50:12;;;;;;;;;11.50;11.50;;;;;19.98;70.52;101179.09;4967736;28;45631;-74
2021/06/19 03:52:38;;;;;;;;;10.50;10.50;;;;;19.95;70.62;101168.78;4964131;28;45548;-74
2021/06/19 03:55:08;;;;;;;;;9.75;9.50;;;;;19.94;71.19;101172.47;4964781;28;45550;-74
2021/06/19 03:57:36;;;;;;;;;10.75;9.25;;;;;19.90;70.95;101168.50;4967308;28;45706;-73
2021/06/19 04:00:05;;;;;;;;;12.50;12.50;;;;;19.88;71.66;101175.97;4966699;28;45392;-73
2021/06/19 04:02:30;;;;;;;;;10.00;10.00;;;;;19.85;70.74;101168.28;4980914;28;47007;-73
2021/06/19 04:04:56;;;;;;;;;12.50;10.75;;;;;19.86;71.08;101169.97;4965365;28;45774;-74
2021/06/19 04:07:21;;;;;;;;;11.50;11.50;;;;;19.91;71.62;101175.56;4965445;28;45499;-72
2021/06/19 04:09:52;;;;;;;;;11.00;11.00;;;;;19.93;71.49;101168.13;4964790;28;45469;-75
2021/06/19 04:12:18;;;;;;;;;10.25;8.50;;;;;20.01;71.31;101172.50;4966358;28;45478;-74
2021/06/19 04:14:45;;;;;;;;;10.75;10.75;;;;;20.04;70.88;101168.59;4966709;28;45563;-74
2021/06/19 04:17:11;;;;;;;;;12.25;10.50;;;;;20.09;70.87;101168.81;4964344;28;45456;-74
2021/06/19 04:19:40;;;;;;;;;14.75;12.00;;;;;20.14;71.86;101164.47;4964919;28;45462;-74
2021/06/19 04:22:09;;;;;;;;;11.00;9.75;;;;;20.18;71.21;101172.97;4965478;28;46434;-74
2021/06/19 04:24:35;;;;;;;;;11.25;10.75;;;;;20.26;70.79;101178.16;4961369;28;45633;-73
2021/06/19 04:27:02;;;;;;;;;11.00;9.50;;;;;20.33;70.63;101181.69;4973282;28;45973;-73
2021/06/19 04:29:31;;;;;;;;;12.25;12.25;;;;;20.43;70.62;101180.47;4959066;28;45515;-72
2021/06/19 04:31:58;;;;;;;;;10.00;10.00;;;;;20.50;70.54;101181.28;4965582;28;48027;-73
2021/06/19 04:34:24;;;;;;;;;12.00;9.75;;;;;20.55;70.41;101162.75;4964921;28;45473;-74
2021/06/19 04:36:50;;;;;;;;;14.75;13.50;;;;;20.60;69.63;101166.47;4965637;28;45527;-73
2021/06/19 04:39:16;;;;;;;;;16.00;14.75;;;;;20.67;69.58;101177.19;4969812;28;45602;-74
2021/06/19 04:42:05;;;;;;;;;12.75;12.00;;;;;20.75;69.19;101189.63;4964265;28;46636;-72
2021/06/19 04:47:14;;;;;;;;;15.00;14.00;;;;;20.86;69.05;101185.50;4961983;28;45767;-72
2021/06/19 04:49:40;;;;;;;;;15.25;14.00;;;;;20.88;68.67;101180.75;4959595;28;45458;-73
2021/06/19 04:52:06;;;;;;;;;11.25;11.25;;;;;20.91;69.19;101177.63;4964792;28;45631;-73
2021/06/19 04:54:37;;;;;;;;;16.25;14.50;;;;;20.97;68.79;101185.69;4958437;28;45815;-72
2021/06/19 04:57:05;;;;;;;;;12.00;12.00;;;;;21.03;69.05;101187.53;4961517;28;45659;-73
2021/06/19 04:59:32;;;;;;;;;13.00;13.00;;;;;21.12;68.55;101187.34;4959495;28;45414;-73
2021/06/19 05:01:57;;;;;;;;;12.50;11.25;;;;;21.19;68.19;101186.31;4959617;28;45992;-73
2021/06/19 05:04:23;;;;;;;;;11.50;11.50;;;;;21.25;67.48;101188.16;4959178;28;45943;-73
2021/06/19 05:06:48;;;;;;;;;11.75;11.00;;;;;21.30;68.00;101178.66;4958747;28;45484;-74
2021/06/19 05:09:13;;;;;;;;;12.00;11.75;;;;;21.38;67.07;101194.53;4964296;28;45490;-73
2021/06/19 05:11:39;;;;;;;;;11.50;10.75;;;;;21.42;66.64;101180.50;4956899;28;46005;-74
2021/06/19 05:14:04;;;;;;;;;13.50;10.50;;;;;21.44;66.41;101183.81;4959779;28;45455;-74
2021/06/19 05:16:29;;;;;;;;;12.25;10.00;;;;;21.53;67.12;101197.03;4960346;28;45893;-73
2021/06/19 05:18:55;;;;;;;;;11.50;11.00;;;;;21.57;66.66;101199.09;4958661;28;45463;-73
2021/06/19 05:21:20;;;;;;;;;14.00;11.75;;;;;21.64;66.04;101197.22;4960279;28;45431;-72
2021/06/19 05:23:45;;;;;;;;;18.00;18.00;;;;;21.64;66.16;101197.22;4960083;28;52514;-74
2021/06/19 05:26:11;;;;;;;;;15.25;15.00;;;;;21.59;65.97;101206.97;4960398;28;45705;-73
2021/06/19 05:28:37;;;;;;;;;19.25;17.25;;;;;21.56;66.00;101202.81;4960461;28;45389;-72
2021/06/19 05:31:03;;;;;;;;;25.75;19.25;;;;;21.59;65.92;101197.03;4962312;28;46041;-74
2021/06/19 05:33:29;;;;;;;;;22.75;22.75;;;;;21.63;65.53;101208.97;4963775;28;45746;-74
2021/06/19 05:35:54;;;;;;;;;25.25;23.25;;;;;21.75;65.52;101202.97;4966328;28;45999;-73
2021/06/19 05:38:19;;;;;;;;;39.75;31.00;;;;;21.84;65.21;101199.00;4960355;28;45490;-73
2021/06/19 05:40:46;;;;;;;;;49.25;39.25;;;;;21.89;64.50;101196.50;4962147;28;45772;-75
2021/06/19 05:43:11;;;;;;;;;55.25;45.50;;;;;21.97;64.68;101195.44;4965045;28;45373;-74
2021/06/19 05:45:37;;;;;;;;;56.75;45.75;;;;;22.08;64.73;101192.91;4964972;28;45583;-72
2021/06/19 05:48:02;;;;;;;;;57.50;45.50;;;;;22.20;64.99;101179.59;4967782;28;45770;-74
2021/06/19 05:50:28;;;;;;;;;62.25;47.50;;;;;22.36;64.66;101178.28;4960388;28;47241;-73
2021/06/19 05:52:54;;;;;;;;;59.25;46.00;;;;;22.47;64.28;101174.88;4963044;28;45735;-75
2021/06/19 05:55:19;;;;;;;;;56.50;45.50;;;;;22.56;63.23;101174.66;4962871;28;45596;-72
2021/06/19 05:57:45;;;;;;;;;53.25;43.25;;;;;22.59;64.04;101169.63;4959008;28;45334;-72
2021/06/19 06:00:11;;;;;;;;;40.50;35.25;;;;;22.63;63.28;101167.34;4961469;28;45600;-72
2021/06/19 06:02:36;;;;;;;;;38.00;34.00;;;;;22.73;63.13;101160.41;4959016;28;45639;-72
2021/06/19 06:05:02;;;;;;;;;28.50;27.25;;;;;22.83;62.88;101159.91;4958422;28;45491;-74
2021/06/19 06:07:28;;;;;;;;;28.00;25.75;;;;;22.86;62.76;101169.44;4964376;28;45498;-74
2021/06/19 06:09:53;;;;;;;;;27.00;25.25;;;;;22.92;62.53;101168.53;4957353;28;45590;-74
2021/06/19 06:12:18;;;;;;;;;25.00;24.00;;;;;22.99;62.04;101163.13;4976026;28;45812;-73
2021/06/19 06:14:44;;;;;;;;;30.25;26.50;;;;;22.94;61.91;101156.50;4960133;28;45527;-73
2021/06/19 06:17:10;;;;;;;;;27.50;26.25;;;;;22.93;61.87;101160.25;4956464;28;51784;-73
2021/06/19 06:19:35;;;;;;;;;33.50;24.75;;;;;23.01;61.74;101161.03;4961023;28;46255;-73
2021/06/19 06:22:03;;;;;;;;;26.00;23.50;;;;;23.09;61.72;101156.19;4960050;28;46577;-74
2021/06/19 06:24:29;;;;;;;;;25.75;25.00;;;;;23.17;61.73;101152.41;4958127;28;45389;-74
2021/06/19 06:26:54;;;;;;;;;25.00;24.25;;;;;23.18;61.73;101154.03;4965532;28;45397;-72
2021/06/19 06:29:20;;;;;;;;;20.75;20.00;;;;;23.09;61.32;101158.88;4956999;28;46326;-72
2021/06/19 06:31:45;;;;;;;;;19.25;16.50;;;;;23.05;61.86;101151.47;4957660;28;45501;-73
2021/06/19 06:34:11;;;;;;;;;19.25;17.25;;;;;23.06;61.91;101164.72;4957279;28;45436;-73
2021/06/19 06:36:36;;;;;;;;;18.50;16.75;;;;;23.04;61.60;101160.59;4964102;28;45463;-73
2021/06/19 06:39:04;;;;;;;;;17.25;15.25;;;;;23.09;62.04;101169.66;4965725;28;47468;-72
2021/06/19 06:41:32;;;;;;;;;13.00;13.00;;;;;23.07;61.70;101173.63;4956886;28;45564;-73
2021/06/19 06:43:58;;;;;;;;;15.00;13.75;;;;;22.94;62.35;101185.31;4956853;28;45676;-73
2021/06/19 06:46:24;;;;;;;;;14.50;12.75;;;;;22.89;61.92;101175.19;4960611;28;45624;-73
2021/06/19 06:48:49;;;;;;;;;13.50;13.50;;;;;22.88;61.86;101178.94;4959245;28;45610;-73
2021/06/19 06:51:15;;;;;;;;;13.50;11.00;;;;;22.84;62.17;101180.41;4966047;28;45492;-73
2021/06/19 06:53:41;;;;;;;;;12.25;12.25;;;;;22.85;61.80;101187.47;4961890;28;45949;-74
2021/06/19 06:56:07;;;;;;;;;12.50;12.50;;;;;22.81;62.10;101185.44;4959136;28;45554;-74
2021/06/19 06:58:32;;;;;;;;;11.50;11.25;;;;;22.78;62.49;101189.41;4962134;28;46340;-73
2021/06/19 07:00:59;;;;;;;;;11.75;11.50;;;;;22.81;62.28;101191.66;4959323;28;45553;-72
2021/06/19 07:03:25;;;;;;;;;12.50;11.50;;;;;22.87;62.10;101187.25;4961230;28;51140;-73
2021/06/19 07:05:50;;;;;;;;;14.00;14.00;;;;;22.83;61.99;101192.25;4964782;28;45684;-72
2021/06/19 07:08:19;;;;;;;;;15.75;13.75;;;;;22.75;62.18;101200.63;4960162;28;45519;-73
2021/06/19 07:10:44;;;;;;;;;13.00;13.00;;;;;22.78;62.12;101193.97;4959520;28;45389;-74
2021/06/19 07:13:10;;;;;;;;;16.00;13.00;;;;;22.99;61.98;101190.09;4958476;28;45514;-72
2021/06/19 07:15:36;;;;;;;;;13.00;12.00;;;;;23.42;61.08;101184.69;4961538;28;45426;-73
2021/06/19 07:18:02;;;;;;;;;14.25;12.75;;;;;23.88;60.58;101183.34;4963322;28;46036;-73
2021/06/19 07:20:27;;;;;;;;;13.00;11.50;;;;;24.19;59.50;101179.63;4962738;28;45652;-75
2021/06/19 07:22:53;;;;;;;;;14.50;12.00;;;;;24.36;58.60;101184.41;4961920;28;56255;-73
2021/06/19 07:25:19;;;;;;;;;11.25;9.25;;;;;24.63;58.28;101177.56;4979974;28;45560;-73
2021/06/19 07:27:47;;;;;;;;;10.50;10.50;;;;;24.83;58.42;101177.25;4970785;28;45632;-72
2021/06/19 07:30:14;;;;;;;;;9.50;9.50;;;;;24.99;58.15;101177.59;4959140;28;47007;-73
2021/06/19 07:32:39;;;;;;;;;12.50;10.50;;;;;25.04;57.51;101170.44;4961285;28;45804;-73
2021/06/19 07:35:07;;;;;;;;;10.75;9.50;;;;;25.04;57.17;101161.50;4961553;28;46087;-73
2021/06/19 07:37:33;;;;;;;;;12.00;12.00;;;;;24.97;56.42;101148.09;4963631;28;47421;-73
2021/06/19 07:39:58;;;;;;;;;9.00;8.25;;;;;24.93;56.88;101138.81;4957260;28;45869;-72
2021/06/19 07:42:24;;;;;;;;;10.00;8.00;;;;;24.94;57.25;101132.34;4961866;28;45550;-73
2021/06/19 07:44:50;;;;;;;;;8.50;8.50;;;;;24.98;56.33;101121.91;4963992;28;45717;-73
2021/06/19 07:47:16;;;;;;;;;9.50;9.00;;;;;24.98;56.94;101086.75;4963367;28;46241;-72
2021/06/19 07:49:42;;;;;;;;;8.75;8.75;;;;;24.96;56.76;101067.25;4960554;28;45809;-73
2021/06/19 07:52:08;;;;;;;;;8.75;8.75;;;;;24.92;56.53;101066.88;4962722;28;45571;-75
2021/06/19 07:54:37;;;;;;;;;8.00;8.00;;;;;24.90;56.75;101069.03;4958689;28;54972;-75
2021/06/19 07:57:05;;;;;;;;;11.00;10.25;;;;;25.07;56.69;101093.44;4965735;28;46299;-74
2021/06/19 07:59:30;;;;;;;;;11.00;9.00;;;;;25.46;56.71;101102.66;4957668;28;46760;-73
2021/06/19 08:01:55;;;;;;;;;10.25;9.75;;;;;26.34;55.52;101099.75;4956072;28;46242;-74
2021/06/19 08:04:21;;;;;;;;;8.00;8.00;;;;;26.93;53.01;101102.00;4962577;28;46411;-73
2021/06/19 08:06:46;;;;;;;;;10.00;10.00;;;;;27.42;52.72;101104.84;4960164;28;45448;-74
2021/06/19 08:09:12;;;;;;;;;9.75;8.50;;;;;27.28;52.31;101100.91;4965489;28;45494;-75
2021/06/19 08:11:37;;;;;;;;;7.75;7.75;;;;;27.02;52.47;101097.81;4960092;28;45504;-72
2021/06/19 08:14:03;;;;;;;;;7.50;7.50;;;;;26.63;52.00;101088.81;4961208;28;46092;-74
2021/06/19 08:16:28;;;;;;;;;9.00;9.00;;;;;26.12;53.61;101061.72;4960545;28;46230;-72
2021/06/19 08:18:55;;;;;;;;;10.00;9.00;;;;;25.80;53.79;101053.25;4964165;28;45533;-73
2021/06/19 08:21:20;;;;;;;;;16.00;12.00;;;;;25.53;54.29;101043.84;4964303;28;45582;-73
2021/06/19 08:23:46;;;;;;;;;9.25;8.50;;;;;25.49;54.87;101039.16;4962399;28;45537;-73
2021/06/19 08:26:11;;;;;;;;;9.75;8.25;;;;;25.41;54.87;101053.06;4958928;28;45558;-72
2021/06/19 08:28:37;;;;;;;;;13.00;9.75;;;;;25.21;55.31;101077.81;4961773;28;45564;-73
2021/06/19 08:31:03;;;;;;;;;9.25;7.00;;;;;25.08;55.69;101089.69;4957936;28;45594;-76
2021/06/19 08:33:29;;;;;;;;;9.00;9.00;;;;;24.86;55.62;101105.69;4963654;28;46101;-72
2021/06/19 08:35:54;;;;;;;;;8.00;8.00;;;;;24.67;56.24;101103.06;4962382;28;45564;-73
2021/06/19 08:38:20;;;;;;;;;11.50;9.00;;;;;24.63;56.08;101083.00;4960148;28;45942;-73
2021/06/19 08:40:45;;;;;;;;;8.00;7.75;;;;;24.58;56.54;101068.53;4960569;28;45657;-79
2021/06/19 08:43:11;;;;;;;;;10.00;9.00;;;;;24.59;56.72;101064.78;4960309;28;49190;-73
2021/06/19 08:45:36;;;;;;;;;9.75;9.00;;;;;24.62;56.75;101067.81;4961011;28;46480;-72
2021/06/19 08:48:04;;;;;;;;;9.50;7.75;;;;;24.66;56.58;101068.19;4965741;28;45515;-74
2021/06/19 08:50:30;;;;;;;;;8.75;8.75;;;;;24.63;56.73;101066.78;4959306;28;45492;-71
2021/06/19 08:53:00;;;;;;;;;9.00;9.00;;;;;24.53;56.58;101061.16;4962095;28;45853;-72
2021/06/19 08:55:26;;;;;;;;;10.25;9.75;;;;;24.38;57.78;101061.56;4958893;28;45527;-72
2021/06/19 08:57:52;;;;;;;;;9.25;8.00;;;;;24.18;57.79;101061.03;4957269;28;136003;-71
2021/06/19 09:00:18;;;;;;;;;9.25;9.00;;;;;24.15;57.89;101043.44;4965126;28;45498;-71
2021/06/19 09:02:46;;;;;;;;;10.75;9.00;;;;;24.15;58.08;101038.03;4962755;28;45539;-72
2021/06/19 09:05:15;;;;;;;;;9.00;9.00;;;;;24.20;58.14;101037.34;4962805;28;46301;-76
2021/06/19 09:07:49;;;;;;;;;8.00;7.50;;;;;24.20;58.36;101035.47;4960612;28;45930;-75
2021/06/19 09:10:19;;;;;;;;;8.75;8.00;;;;;24.29;57.62;101025.16;4961924;28;45562;-74
2021/06/19 09:13:00;;;;;;;;;8.50;7.50;;;;;24.46;57.40;101033.41;4964186;28;45693;-74
2021/06/19 09:15:27;;;;;;;;;8.00;8.00;;;;;24.65;58.44;101026.84;4963518;28;45812;-78
2021/06/19 09:18:11;;;;;;;;;8.00;8.00;;;;;25.22;57.22;101030.75;4963985;28;46501;-77
2021/06/19 09:20:39;;;;;;;;;9.00;8.00;;;;;25.53;55.32;101035.72;4959129;28;45592;-77
2021/06/19 09:23:11;;;;;;;;;8.00;8.00;;;;;25.76;55.16;101044.78;4973174;28;45499;-79
2021/06/19 09:25:40;;;;;;;;;8.75;7.25;;;;;26.05;54.67;101040.19;4958470;28;46022;-72
2021/06/19 09:28:08;;;;;;;;;9.00;7.50;;;;;26.62;53.54;101036.50;4963513;28;45561;-71
2021/06/19 09:30:35;;;;;;;;;9.00;9.00;;;;;27.48;53.71;101035.19;4961536;28;54115;-71
2021/06/19 09:33:05;;;;;;;;;8.25;7.00;;;;;28.19;51.92;101041.34;4966272;28;45953;-72
2021/06/19 09:35:33;;;;;;;;;8.00;8.00;;;;;28.57;50.45;101046.81;4960421;28;45947;-71
2021/06/19 09:38:00;;;;;;;;;8.00;8.00;;;;;28.76;50.02;101048.00;4960363;28;46555;-73
2021/06/19 09:40:35;;;;;;;;;8.00;8.00;;;;;28.84;49.65;101036.63;4957891;28;45562;-72
2021/06/19 09:43:18;;;;;;;;;9.75;7.50;;;;;29.13;49.88;101031.63;4960353;28;45668;-74
2021/06/19 09:46:04;;;;;;;;;9.25;8.00;;;;;29.80;49.29;101034.53;4961898;28;52067;-72
2021/06/19 09:48:35;;;;;;;;;8.50;8.50;;;;;30.37;48.10;101033.47;4959794;28;45711;-73
2021/06/19 09:51:19;;;;;;;;;8.75;8.75;;;;;30.73;46.12;101027.13;4965033;28;45461;-72
2021/06/19 09:53:53;;;;;;;;;8.00;8.00;;;;;30.80;44.92;101033.91;4962005;28;45480;-73
2021/06/19 09:56:20;;;;;;;;;9.75;8.00;;;;;30.69;44.91;101031.47;4963508;28;46632;-74
2021/06/19 09:58:50;;;;;;;;;10.75;9.25;;;;;30.59;43.75;101035.09;4961043;28;45531;-78
2021/06/19 10:01:36;;;;;;;;;8.25;7.25;;;;;30.18;46.15;101030.44;4958148;28;45882;-77
2021/06/19 10:04:04;;;;;;;;;11.00;8.00;;;;;30.09;46.31;101039.44;4955771;28;49607;-78
2021/06/19 10:06:30;;;;;;;;;8.75;8.00;;;;;30.04;44.46;101026.63;4977520;28;47878;-80
2021/06/19 10:08:58;;;;;;;;;9.00;7.75;;;;;30.06;46.02;101018.19;4965141;28;45810;-77
2021/06/19 10:11:26;;;;;;;;;8.75;8.00;;;;;30.52;44.88;100999.09;4960796;28;45464;-76
2021/06/19 10:13:57;;;;;;;;;7.75;7.75;;;;;31.27;46.50;101004.53;4961301;28;46118;-79
2021/06/19 10:16:24;;;;;;;;;7.00;7.00;;;;;32.18;45.04;100996.81;4962829;28;46109;-74
2021/06/19 10:18:52;;;;;;;;;8.00;8.00;;;;;33.17;42.11;101001.75;4961022;28;45968;-77
2021/06/19 10:21:18;;;;;;;;;9.50;7.75;;;;;33.09;39.36;100993.38;4963049;28;46009;-74
2021/06/19 10:23:44;;;;;;;;;11.25;9.00;;;;;33.11;42.39;101005.69;4959117;28;45383;-73
2021/06/19 10:26:10;;;;;;;;;8.75;8.75;;;;;33.39;40.79;100998.41;4957314;28;45646;-72
2021/06/19 10:28:42;;;;;;;;;9.25;7.50;;;;;33.51;41.52;101003.47;4965001;28;45735;-80
2021/06/19 10:31:08;;;;;;;;;10.00;9.00;;;;;33.60;40.92;100990.72;4974427;28;45898;-81
2021/06/19 10:33:35;;;;;;;;;9.75;8.75;;;;;33.60;40.31;100985.25;4963095;28;45849;-82
2021/06/19 10:36:07;;;;;;;;;10.25;9.50;;;;;33.58;38.84;100992.13;4962728;28;46351;-77
2021/06/19 10:38:45;;;;;;;;;8.50;8.50;;;;;33.74;41.01;100976.28;4961315;28;45562;-80
2021/06/19 10:41:10;;;;;;;;;8.25;8.25;;;;;34.30;40.05;100978.06;4958223;28;45379;-81
2021/06/19 10:43:42;;;;;;;;;8.50;8.25;;;;;34.96;40.15;100977.84;4958251;28;45517;-81
2021/06/19 10:46:26;;;;;;;;;10.50;9.00;;;;;36.04;38.17;100979.72;4955277;28;45653;-81
2021/06/19 10:48:54;;;;;;;;;8.50;8.25;;;;;36.79;36.56;100977.94;4959180;28;45602;-81
2021/06/19 10:51:25;;;;;;;;;8.25;8.25;;;;;36.38;36.52;100961.78;4963966;28;46087;-82
2021/06/19 10:54:06;;;;;;;;;7.00;7.00;;;;;36.09;36.11;100971.34;4962035;28;46091;-81
2021/06/19 10:56:59;;;;;;;;;9.50;9.00;;;;;36.42;35.90;100961.94;4959284;28;45609;-87
2021/06/19 10:59:26;;;;;;;;;9.00;8.50;;;;;36.39;35.91;100942.19;4957587;28;45467;-80
2021/06/19 11:01:53;;;;;;;;;7.25;7.25;;;;;36.77;36.36;100954.59;4961733;28;45452;-78
2021/06/19 11:04:38;;;;;;;;;6.75;6.75;;;;;37.35;35.13;100947.06;4959723;28;45606;-80
2021/06/19 11:07:29;;;;;;;;;8.75;8.75;;;;;38.06;35.37;100941.13;4978553;28;47456;-79
2021/06/19 11:09:54;;;;;;;;;7.50;7.50;;;;;38.47;34.37;100943.22;4961335;28;50229;-72
2021/06/19 11:12:30;;;;;;;;;8.50;7.50;;;;;38.96;33.52;100942.78;4962897;28;45325;-72
2021/06/19 11:15:04;;;;;;;;;10.25;9.50;;;;;38.89;31.95;100936.94;4963983;28;45507;-72
2021/06/19 11:17:32;;;;;;;;;7.25;7.00;;;;;38.87;33.03;100931.75;4959237;28;46343;-73
2021/06/19 11:20:02;;;;;;;;;10.00;8.00;;;;;39.28;32.43;100940.41;4960339;28;45806;-74
2021/06/19 11:22:27;;;;;;;;;10.25;9.50;;;;;39.71;30.31;100934.44;4959166;28;45738;-72